Skip Navigation Links
NOAA logo - Click to go to the NOAA homepage
NOAA's National Weather Service
Alaska Aviation Weather Unit
  NWS logo - Click to go to the NWS homepage
Left Navbar Graphic     19 AKDT = 03 GMT

   
NOAA is celebrating 200 years of science, service, and stewardship. Visit the NOAA 200th celebration Web site to learn more.
USA.gov is the U.S. Government's official Web portal to all Federal, state and local government Web resources and services.
Facebook
NWS on Facebook

Important Change Regarding the AAWU Web Presence

 

Over the last several months, the AAWU has been working to navigate its webpages to a nationally supported server. Security, as well as other needs, have necessitated the change.  In the process, we have made an effort to enhance the functionality of our website, as well as some of our products. As of June 20, 2017, aawu.arh.noaa.gov will be discontinued. The new AAWU web address is weather.gov/aawu. It is now live and will run in-parallel with the old site until it is discontinued. Please send any feedback or questions regarding the new webpages to nws.ar.aawu.webauthors@noaa.gov.  Thank you for your patience during this time of transition.
AAWU Home :: Display TAF Add Bookmark
SPECI PAKV 242121Z AUTO VRB05KT 10SM -RA FEW019 SCT024 OVC047 07/05
     A2960 RMK AO2 P0001 T00720050 TSNO=

SPECI PAKV 242142Z AUTO VRB04KT 10SM -RA BKN019 BKN027 OVC050 07/04
     A2960 RMK AO2 P0002 T00720044 TSNO=

METAR PAKV 242153Z AUTO VRB04KT 10SM -RA SCT019 BKN027 OVC034 07/04
     A2960 RMK AO2 SLP026 P0002 T00720044 TSNO=

SPECI PAKV 242206Z AUTO 21008KT 170V240 10SM FEW019 BKN035 OVC047 07/04
     A2960 RMK AO2 RAE2156 P0000 T00720044 TSNO=

METAR PAKV 242253Z AUTO VRB05KT 10SM FEW017 BKN025 OVC080 09/06 A2960
     RMK AO2 RAE2156B13E30 SLP027 P0000 T00890056 TSNO=

SPECI PAKV 242346Z AUTO VRB05KT 10SM SCT022 BKN047 OVC075 09/05 A2960
     RMK AO2 RAB26E44 P0000 T00890050 TSNO=

METAR PAKV 242353Z AUTO 19007KT 10SM FEW018 SCT028 OVC075 09/05 A2961
     RMK AO2 RAB26E44 SLP028 P0000 60012 T00890050 10089 20061
     51005 TSNO=

METAR PAKV 250053Z AUTO 24011KT 7SM -RA BKN030 OVC040 06/03 A2964
 RMK AO2 PK WND 22026/0007 RAB09 SLP039 P0004 T00560028 TSNO=

METAR PAKV 250153Z AUTO 24008KT 10SM BKN060 OVC080 07/04 A2965 RMK AO2
     RAE26 SLP044 P0001 T00670039 TSNO=

METAR PAKV 250253Z AUTO 24007KT 10SM FEW016 BKN046 OVC070 07/03
 A2967 RMK AO2 RAB18E46 SLP048 P0001 60006 T00670033 51020 TSNO=


NOAA's National Weather Service
Alaska Aviation Weather Unit
6930 Sand Lake Road
Anchorage, AK 99502-1845
Disclaimer
Credits
Glossary
Privacy Policy
About Us
Career Opportunities
Contact AAWU Internet Services Site last modified: April, 17th 2012